createdAt,value
2022-08-19T00:01:59.287Z,15.65
2022-08-19T00:04:37.442Z,12.98
2022-08-19T00:07:06.661Z,12.45
2022-08-19T00:09:34.885Z,11.65
2022-08-19T00:12:02.837Z,16.95
2022-08-19T00:14:33.880Z,17.80
2022-08-19T00:19:29.592Z,12.60
2022-08-19T00:21:57.372Z,15.07
2022-08-19T00:24:25.729Z,18.60
2022-08-19T00:26:53.679Z,16.98
2022-08-19T00:29:22.554Z,21.48
2022-08-19T00:31:52.218Z,28.13
2022-08-19T00:34:19.603Z,24.40
2022-08-19T00:36:47.446Z,16.85
2022-08-19T00:39:16.519Z,15.75
2022-08-19T00:41:47.736Z,20.05
2022-08-19T00:44:26.890Z,23.23
2022-08-19T00:46:58.172Z,22.27
2022-08-19T00:49:35.537Z,21.42
2022-08-19T00:52:07.673Z,18.95
2022-08-19T00:54:37.651Z,27.15
2022-08-19T00:57:08.897Z,18.92
2022-08-19T00:59:58.779Z,19.38
2022-08-19T01:02:28.387Z,18.65
2022-08-19T01:04:56.749Z,23.02
2022-08-19T01:07:24.169Z,23.60
2022-08-19T01:09:51.687Z,21.85
2022-08-19T01:12:19.476Z,25.85
2022-08-19T01:14:48.828Z,22.17
2022-08-19T01:17:17.242Z,24.08
2022-08-19T01:19:47.789Z,20.27
2022-08-19T01:22:31.459Z,21.65
2022-08-19T01:25:00.754Z,23.75
2022-08-19T01:27:29.911Z,20.45
2022-08-19T01:30:04.095Z,18.02
2022-08-19T01:32:33.984Z,15.90
2022-08-19T01:35:03.967Z,17.25
2022-08-19T01:37:31.779Z,22.58
2022-08-19T01:39:59.136Z,22.17
2022-08-19T01:42:30.298Z,17.45
2022-08-19T01:44:58.344Z,15.63
2022-08-19T01:47:25.513Z,16.55
2022-08-19T01:49:52.764Z,15.02
2022-08-19T01:52:20.606Z,18.42
2022-08-19T01:54:47.916Z,17.40
2022-08-19T01:57:15.839Z,14.27
2022-08-19T01:59:45.083Z,16.88
2022-08-19T02:02:12.636Z,18.45
2022-08-19T02:04:40.348Z,18.05
2022-08-19T02:07:09.107Z,18.13
2022-08-19T02:09:36.734Z,14.98
2022-08-19T02:12:05.841Z,14.02
2022-08-19T02:14:35.290Z,11.48
2022-08-19T02:17:02.653Z,16.75
2022-08-19T02:19:29.869Z,13.43
2022-08-19T02:21:57.258Z,16.13
2022-08-19T02:24:24.604Z,17.55
2022-08-19T02:26:52.345Z,15.80
2022-08-19T02:29:19.857Z,17.92
2022-08-19T02:31:47.268Z,17.05
2022-08-19T02:34:14.556Z,14.90
2022-08-19T02:36:42.495Z,18.52
2022-08-19T02:39:11.104Z,15.13
2022-08-19T02:41:38.312Z,15.45
2022-08-19T02:44:29.033Z,14.80
2022-08-19T02:46:53.386Z,13.48
2022-08-19T02:49:20.937Z,12.90
2022-08-19T02:51:48.373Z,13.70
2022-08-19T02:54:15.858Z,17.00
2022-08-19T02:56:44.599Z,13.82
2022-08-19T02:59:13.087Z,17.23
2022-08-19T03:01:42.241Z,13.32
2022-08-19T03:04:12.671Z,17.98
2022-08-19T03:06:42.379Z,19.52
2022-08-19T03:09:10.767Z,15.60
2022-08-19T03:11:39.060Z,17.83
2022-08-19T03:14:08.218Z,16.10
2022-08-19T03:16:48.078Z,17.63
2022-08-19T03:19:18.454Z,17.75
2022-08-19T03:21:46.461Z,17.63
2022-08-19T03:24:16.312Z,16.67
2022-08-19T03:26:47.552Z,15.23
2022-08-19T03:29:16.318Z,16.05
2022-08-19T03:31:57.813Z,17.27
2022-08-19T03:34:28.023Z,17.95
2022-08-19T03:36:57.533Z,14.60
2022-08-19T03:39:26.170Z,19.75
2022-08-19T03:42:32.109Z,16.95
2022-08-19T03:44:43.369Z,16.60
2022-08-19T03:47:10.553Z,23.55
2022-08-19T03:49:37.843Z,16.35
2022-08-19T03:52:08.530Z,17.17
2022-08-19T03:54:36.823Z,23.80
2022-08-19T03:57:04.348Z,18.92
2022-08-19T03:59:34.813Z,22.13
2022-08-19T04:02:06.856Z,18.38
2022-08-19T04:04:34.315Z,19.35
2022-08-19T04:07:01.502Z,12.77
2022-08-19T04:09:28.674Z,14.07
2022-08-19T04:11:57.962Z,24.50
2022-08-19T04:14:29.489Z,16.65
2022-08-19T04:16:57.826Z,18.60
2022-08-19T04:19:25.641Z,18.77
2022-08-19T04:21:55.062Z,15.13
2022-08-19T04:24:23.660Z,14.52
2022-08-19T04:26:51.815Z,15.52
2022-08-19T04:29:26.126Z,24.88
2022-08-19T04:31:55.841Z,12.90
2022-08-19T04:34:25.512Z,18.05
2022-08-19T04:36:55.345Z,19.02
2022-08-19T04:39:49.011Z,16.95
2022-08-19T04:42:36.912Z,15.48
2022-08-19T04:45:09.232Z,13.38
2022-08-19T04:47:47.757Z,14.63
2022-08-19T04:50:27.659Z,15.27
2022-08-19T04:52:57.204Z,14.85
2022-08-19T04:55:26.846Z,17.00
2022-08-19T04:57:55.675Z,16.90
2022-08-19T05:00:23.418Z,12.82
2022-08-19T05:02:50.708Z,12.93
2022-08-19T05:05:18.544Z,22.50
2022-08-19T05:07:45.759Z,13.10
2022-08-19T05:10:13.789Z,15.85
2022-08-19T05:12:41.221Z,14.18
2022-08-19T05:15:12.174Z,16.05
2022-08-19T05:17:59.302Z,18.33
2022-08-19T05:20:45.315Z,13.80
2022-08-19T05:23:21.902Z,14.43
2022-08-19T05:25:51.693Z,16.35
2022-08-19T05:28:21.470Z,11.77
2022-08-19T05:30:51.563Z,17.38
2022-08-19T05:33:19.824Z,10.85
2022-08-19T05:35:47.301Z,15.55
2022-08-19T05:38:14.653Z,18.02
2022-08-19T05:40:42.538Z,13.68
2022-08-19T05:43:10.075Z,10.85
2022-08-19T05:45:41.603Z,17.13
2022-08-19T05:48:12.192Z,13.43
2022-08-19T05:50:41.385Z,12.20
2022-08-19T05:53:09.977Z,13.50
2022-08-19T05:55:39.490Z,13.63
2022-08-19T05:58:08.687Z,19.83
2022-08-19T06:00:38.254Z,12.55
2022-08-19T06:03:12.833Z,12.60
2022-08-19T06:05:49.527Z,12.18
2022-08-19T06:08:20.276Z,12.68
2022-08-19T06:10:47.517Z,11.80
2022-08-19T06:13:14.919Z,12.40
2022-08-19T06:15:45.215Z,14.75
2022-08-19T06:18:12.760Z,16.10
2022-08-19T06:20:55.560Z,13.25
2022-08-19T06:23:24.232Z,11.82
2022-08-19T06:25:51.739Z,11.75
2022-08-19T06:28:19.300Z,11.10
2022-08-19T06:30:46.888Z,17.70
2022-08-19T06:33:14.109Z,10.15
2022-08-19T06:35:42.531Z,12.48
2022-08-19T06:38:10.639Z,9.80
2022-08-19T06:40:39.406Z,9.90
2022-08-19T06:43:08.487Z,10.38
2022-08-19T06:45:39.711Z,14.55
2022-08-19T06:48:08.067Z,10.57
2022-08-19T06:50:39.356Z,9.98
2022-08-19T06:53:07.273Z,13.43
2022-08-19T06:55:34.596Z,7.50
2022-08-19T06:58:05.077Z,12.18
2022-08-19T07:00:33.068Z,8.95
2022-08-19T07:03:06.047Z,11.25
2022-08-19T07:05:40.864Z,10.70
2022-08-19T07:08:12.980Z,14.02
2022-08-19T07:10:44.526Z,10.68
2022-08-19T07:13:12.601Z,10.88
2022-08-19T07:15:40.041Z,8.73
2022-08-19T07:18:07.878Z,10.02
2022-08-19T07:20:41.793Z,13.32
2022-08-19T07:23:16.013Z,12.98
2022-08-19T07:25:44.514Z,10.98
2022-08-19T07:28:18.969Z,15.48
2022-08-19T07:30:53.017Z,13.33
2022-08-19T07:33:20.844Z,13.30
2022-08-19T07:35:48.165Z,10.20
2022-08-19T07:38:16.944Z,9.30
2022-08-19T07:40:47.288Z,9.13
2022-08-19T07:43:17.759Z,10.80
2022-08-19T07:45:46.372Z,12.75
2022-08-19T07:48:13.721Z,8.95
2022-08-19T07:50:41.143Z,10.75
2022-08-19T07:53:08.552Z,16.15
2022-08-19T07:55:41.526Z,15.00
2022-08-19T07:58:13.358Z,10.80
2022-08-19T08:00:40.888Z,9.93
2022-08-19T08:03:09.641Z,12.57
2022-08-19T08:05:55.852Z,9.88
2022-08-19T08:08:44.101Z,10.55
2022-08-19T08:11:20.501Z,15.25
2022-08-19T08:14:00.330Z,11.68
2022-08-19T08:16:32.450Z,10.07
2022-08-19T08:19:00.375Z,9.48
2022-08-19T08:21:28.566Z,10.60
2022-08-19T08:23:56.856Z,9.88
2022-08-19T08:26:24.854Z,9.55
2022-08-19T08:28:53.104Z,10.88
2022-08-19T08:31:21.225Z,15.07
2022-08-19T08:33:48.505Z,8.43
2022-08-19T08:36:17.448Z,9.15
2022-08-19T08:38:49.121Z,11.27
2022-08-19T08:41:44.973Z,12.75
2022-08-19T08:44:20.223Z,12.98
2022-08-19T08:46:59.115Z,11.05
2022-08-19T08:49:38.246Z,8.98
2022-08-19T08:52:22.323Z,7.05
2022-08-19T08:54:55.695Z,8.27
2022-08-19T08:58:03.843Z,10.38
2022-08-19T09:00:35.483Z,9.00
2022-08-19T09:03:06.969Z,10.23
2022-08-19T09:06:03.506Z,9.02
2022-08-19T09:08:56.941Z,8.35
2022-08-19T09:12:14.662Z,11.57
2022-08-19T09:15:02.814Z,10.85
2022-08-19T09:17:32.225Z,10.30
2022-08-19T09:20:22.714Z,9.23
2022-08-19T09:22:50.658Z,7.95
2022-08-19T09:25:24.795Z,8.60
2022-08-19T09:28:02.642Z,10.85
2022-08-19T09:30:38.913Z,8.15
2022-08-19T09:33:07.271Z,11.27
2022-08-19T09:35:53.165Z,8.32
2022-08-19T09:38:22.331Z,11.95
2022-08-19T09:40:51.120Z,9.85
2022-08-19T09:43:32.582Z,9.68
2022-08-19T09:46:02.383Z,7.50
2022-08-19T09:48:29.635Z,8.02
2022-08-19T09:51:07.738Z,8.23
2022-08-19T09:53:40.070Z,8.20
2022-08-19T09:56:07.741Z,18.08
2022-08-19T09:58:37.622Z,9.10
2022-08-19T10:01:07.851Z,8.48
2022-08-19T10:03:37.379Z,8.43
2022-08-19T10:06:14.771Z,9.65
2022-08-19T10:08:50.225Z,7.20
2022-08-19T10:11:28.139Z,8.50
2022-08-19T10:14:06.907Z,8.38
2022-08-19T10:16:39.440Z,8.10
2022-08-19T10:19:07.136Z,11.80
2022-08-19T10:21:35.429Z,10.38
2022-08-19T10:24:06.636Z,8.50
2022-08-19T10:26:38.349Z,9.98
2022-08-19T10:29:09.233Z,11.05
2022-08-19T10:32:01.193Z,9.18
2022-08-19T10:34:27.887Z,6.50
2022-08-19T10:37:01.130Z,6.72
2022-08-19T10:39:43.070Z,7.25
2022-08-19T10:42:11.762Z,8.13
2022-08-19T10:44:39.046Z,7.55
2022-08-19T10:47:21.803Z,7.55
2022-08-19T10:50:12.460Z,6.75
2022-08-19T10:52:49.118Z,9.70
2022-08-19T10:55:43.440Z,8.57
2022-08-19T10:58:13.411Z,9.85
2022-08-19T11:00:41.792Z,10.13
2022-08-19T11:03:09.581Z,11.77
2022-08-19T11:05:39.899Z,9.15
2022-08-19T11:08:22.142Z,9.02
2022-08-19T11:11:00.267Z,10.13
2022-08-19T11:13:29.607Z,11.40
2022-08-19T11:16:07.111Z,9.15
2022-08-19T11:18:38.679Z,14.55
2022-08-19T11:21:15.659Z,9.70
2022-08-19T11:23:43.269Z,13.32
2022-08-19T11:26:11.022Z,8.43
2022-08-19T11:28:39.596Z,11.32
2022-08-19T11:31:18.294Z,12.82
2022-08-19T11:33:47.993Z,9.70
2022-08-19T11:36:17.069Z,10.63
2022-08-19T11:38:45.672Z,8.93
2022-08-19T11:41:13.103Z,10.10
2022-08-19T11:43:40.679Z,10.85
2022-08-19T11:46:11.003Z,9.45
2022-08-19T11:48:39.112Z,9.35
2022-08-19T11:51:12.689Z,10.73
2022-08-19T11:53:40.539Z,9.95
2022-08-19T11:56:09.828Z,10.48
2022-08-19T11:58:37.718Z,12.27
2022-08-19T12:01:13.409Z,10.07
2022-08-19T12:03:41.344Z,10.35
2022-08-19T12:06:11.136Z,6.82
2022-08-19T12:08:38.424Z,10.95
2022-08-19T12:11:08.851Z,11.35
2022-08-19T12:13:36.336Z,10.02
2022-08-19T12:16:13.203Z,14.27
2022-08-19T12:18:44.770Z,13.70
2022-08-19T12:21:13.344Z,12.25
2022-08-19T12:23:41.945Z,9.20
2022-08-19T12:26:11.609Z,7.75
2022-08-19T12:28:39.710Z,8.77
2022-08-19T12:31:07.024Z,7.95
2022-08-19T12:33:34.666Z,8.95
2022-08-19T12:36:07.356Z,9.20
2022-08-19T12:38:35.659Z,12.20
2022-08-19T12:41:08.042Z,9.18
2022-08-19T12:43:38.776Z,11.27
2022-08-19T12:46:06.931Z,11.85
2022-08-19T12:48:40.312Z,8.77
2022-08-19T12:51:11.872Z,7.40
2022-08-19T12:53:39.682Z,7.50
2022-08-19T12:56:11.469Z,9.70
2022-08-19T12:58:42.700Z,13.90
2022-08-19T13:01:21.913Z,9.27
2022-08-19T13:03:54.641Z,11.13
2022-08-19T13:06:22.560Z,12.38
2022-08-19T13:08:49.800Z,10.38
2022-08-19T13:11:20.415Z,11.15
2022-08-19T13:13:51.912Z,11.63
2022-08-19T13:16:21.318Z,8.68
2022-08-19T13:18:49.276Z,7.43
2022-08-19T13:21:16.713Z,7.22
2022-08-19T13:23:44.184Z,8.32
2022-08-19T13:26:13.639Z,11.75
2022-08-19T13:29:01.232Z,13.70
2022-08-19T13:31:50.501Z,11.27
2022-08-19T13:34:20.347Z,9.50
2022-08-19T13:36:47.760Z,11.57
2022-08-19T13:39:15.136Z,8.18
2022-08-19T13:41:49.058Z,7.00
2022-08-19T13:44:20.194Z,8.13
2022-08-19T13:46:49.711Z,14.25
2022-08-19T13:49:22.730Z,7.85
2022-08-19T13:51:50.013Z,8.50
2022-08-19T13:54:17.210Z,13.73
2022-08-19T13:56:46.821Z,10.65
2022-08-19T13:59:14.046Z,7.60
2022-08-19T14:01:42.356Z,8.50
2022-08-19T14:04:10.370Z,9.30
2022-08-19T14:06:37.590Z,11.30
2022-08-19T14:09:05.789Z,12.25
2022-08-19T14:11:33.200Z,9.60
2022-08-19T14:14:00.525Z,9.27
2022-08-19T14:16:28.339Z,9.68
2022-08-19T14:18:55.971Z,8.65
2022-08-19T14:21:25.573Z,9.13
2022-08-19T14:23:53.888Z,9.73
2022-08-19T14:26:22.445Z,8.07
2022-08-19T14:28:50.454Z,13.23
2022-08-19T14:31:20.161Z,8.30
2022-08-19T14:33:48.837Z,11.70
2022-08-19T14:36:16.330Z,10.15
2022-08-19T14:38:43.680Z,15.80
2022-08-19T14:41:18.016Z,8.68
2022-08-19T14:43:47.574Z,10.75
2022-08-19T14:46:21.930Z,9.32
2022-08-19T14:48:51.720Z,14.52
2022-08-19T14:51:21.233Z,10.93
2022-08-19T14:53:51.607Z,9.57
2022-08-19T14:56:23.095Z,10.68
2022-08-19T14:58:53.421Z,7.60
2022-08-19T15:01:23.186Z,10.30
2022-08-19T15:03:53.923Z,14.15
2022-08-19T15:08:52.631Z,9.50
2022-08-19T15:11:23.666Z,10.00
2022-08-19T15:13:51.827Z,9.90
2022-08-19T15:16:19.394Z,13.45
2022-08-19T15:18:50.753Z,11.25
2022-08-19T15:21:27.065Z,10.88
2022-08-19T15:23:58.127Z,12.20
2022-08-19T15:26:33.306Z,9.70
2022-08-19T15:29:02.694Z,11.98
2022-08-19T15:31:33.069Z,9.65
2022-08-19T15:34:00.310Z,10.50
2022-08-19T15:36:28.523Z,9.32
2022-08-19T15:38:57.565Z,9.93
2022-08-19T15:41:28.083Z,12.63
2022-08-19T15:43:59.991Z,10.32
2022-08-19T15:46:29.626Z,8.98
2022-08-19T15:49:00.068Z,12.35
2022-08-19T15:53:57.375Z,8.05
2022-08-19T15:56:27.358Z,11.27
2022-08-19T15:59:13.550Z,9.35
2022-08-19T16:01:59.705Z,10.27
2022-08-19T16:04:45.575Z,10.48
2022-08-19T16:07:13.062Z,13.05
2022-08-19T16:09:40.401Z,11.38
2022-08-19T16:12:08.698Z,9.85
2022-08-19T16:14:38.143Z,12.05
2022-08-19T16:17:05.825Z,12.20
2022-08-19T16:19:33.407Z,8.68
2022-08-19T16:22:00.965Z,14.38
2022-08-19T16:24:29.787Z,14.77
2022-08-19T16:26:57.310Z,10.35
2022-08-19T16:29:33.674Z,10.55
2022-08-19T16:32:03.168Z,9.70
2022-08-19T16:34:31.731Z,14.13
2022-08-19T16:37:01.011Z,11.00
2022-08-19T16:39:28.296Z,12.43
2022-08-19T16:41:55.833Z,15.45
2022-08-19T16:44:23.043Z,12.60
2022-08-19T16:46:58.296Z,15.27
2022-08-19T16:49:54.539Z,13.05
2022-08-19T16:52:19.638Z,12.52
2022-08-19T16:54:47.934Z,10.45
2022-08-19T16:57:16.183Z,9.07
2022-08-19T16:59:49.015Z,9.43
2022-08-19T17:02:18.634Z,11.75
2022-08-19T17:04:57.749Z,18.08
2022-08-19T17:07:28.150Z,12.23
2022-08-19T17:09:56.319Z,10.38
2022-08-19T17:12:30.603Z,9.50
2022-08-19T17:15:02.273Z,10.52
2022-08-19T17:17:31.801Z,11.50
2022-08-19T17:20:00.691Z,12.77
2022-08-19T17:22:28.611Z,12.18
2022-08-19T17:24:58.266Z,13.68
2022-08-19T17:27:31.449Z,12.45
2022-08-19T17:30:02.574Z,12.13
2022-08-19T17:32:35.042Z,11.73
2022-08-19T17:35:04.777Z,12.05
2022-08-19T17:37:32.707Z,10.20
2022-08-19T17:40:01.438Z,14.38
2022-08-19T17:42:29.062Z,13.48
2022-08-19T17:44:59.473Z,12.23
2022-08-19T17:47:28.287Z,12.23
2022-08-19T17:49:56.659Z,14.30
2022-08-19T17:52:24.001Z,13.23
2022-08-19T17:54:51.551Z,13.40
2022-08-19T17:57:18.937Z,11.82
2022-08-19T17:59:46.273Z,13.52
2022-08-19T18:02:13.894Z,14.55
2022-08-19T18:04:45.525Z,9.95
2022-08-19T18:07:21.765Z,12.93
2022-08-19T18:09:52.781Z,12.90
2022-08-19T18:12:26.807Z,12.55
2022-08-19T18:14:54.408Z,11.70
2022-08-19T18:17:23.451Z,12.07
2022-08-19T18:19:50.913Z,15.63
2022-08-19T18:22:23.491Z,13.07
2022-08-19T18:24:51.476Z,16.40
2022-08-19T18:27:19.069Z,12.45
2022-08-19T18:29:46.624Z,11.20
2022-08-19T18:32:17.158Z,14.52
2022-08-19T18:34:50.505Z,11.82
2022-08-19T18:37:17.772Z,13.32
2022-08-19T18:40:04.215Z,11.75
2022-08-19T18:42:50.379Z,11.32
2022-08-19T18:45:36.126Z,15.38
2022-08-19T18:48:27.376Z,15.15
2022-08-19T18:50:58.093Z,13.35
2022-08-19T18:53:27.840Z,13.00
2022-08-19T18:55:55.814Z,11.07
2022-08-19T18:58:26.618Z,12.98
2022-08-19T19:00:57.066Z,13.80
2022-08-19T19:03:26.833Z,18.58
2022-08-19T19:05:54.419Z,10.35
2022-08-19T19:08:26.891Z,15.63
2022-08-19T19:10:56.471Z,12.20
2022-08-19T19:13:23.941Z,14.40
2022-08-19T19:15:51.740Z,12.68
2022-08-19T19:18:19.028Z,12.80
2022-08-19T19:20:46.422Z,14.40
2022-08-19T19:23:13.653Z,15.75
2022-08-19T19:25:49.942Z,11.45
2022-08-19T19:28:27.596Z,16.48
2022-08-19T19:30:59.676Z,16.42
2022-08-19T19:33:28.100Z,13.25
2022-08-19T19:35:55.655Z,11.77
2022-08-19T19:38:23.210Z,12.32
2022-08-19T19:40:50.662Z,11.35
2022-08-19T19:43:18.494Z,9.75
2022-08-19T19:45:47.096Z,14.68
2022-08-19T19:48:15.011Z,12.48
2022-08-19T19:50:44.893Z,11.52
2022-08-19T19:53:15.144Z,13.63
2022-08-19T19:55:43.455Z,13.95
2022-08-19T19:58:10.758Z,12.52
2022-08-19T20:00:38.119Z,10.88
2022-08-19T20:03:06.415Z,12.15
2022-08-19T20:05:33.671Z,14.65
2022-08-19T20:08:19.647Z,15.32
2022-08-19T20:10:47.396Z,17.63
2022-08-19T20:13:15.791Z,16.92
2022-08-19T20:15:46.077Z,14.32
2022-08-19T20:18:14.652Z,12.93
2022-08-19T20:20:43.435Z,15.25
2022-08-19T20:23:10.835Z,13.80
2022-08-19T20:25:39.592Z,11.07
2022-08-19T20:28:06.900Z,13.13
2022-08-19T20:30:34.226Z,10.93
2022-08-19T20:33:04.658Z,13.95
2022-08-19T20:35:31.887Z,11.07
2022-08-19T20:38:03.805Z,14.55
2022-08-19T20:40:32.365Z,15.10
2022-08-19T20:42:59.583Z,20.02
2022-08-19T20:45:32.609Z,11.82
2022-08-19T20:48:06.516Z,12.32
2022-08-19T20:50:35.356Z,23.05
2022-08-19T20:53:10.722Z,12.05
2022-08-19T20:55:38.468Z,13.95
2022-08-19T20:58:05.782Z,15.73
2022-08-19T21:00:33.636Z,15.68
2022-08-19T21:03:01.050Z,10.77
2022-08-19T21:05:30.612Z,14.20
2022-08-19T21:07:58.536Z,15.73
2022-08-19T21:10:26.510Z,12.18
2022-08-19T21:12:53.711Z,11.75
2022-08-19T21:15:21.061Z,17.10
2022-08-19T21:17:48.771Z,19.05
2022-08-19T21:20:16.069Z,13.23
2022-08-19T21:22:43.276Z,12.35
2022-08-19T21:25:11.119Z,16.95
2022-08-19T21:27:38.308Z,18.70
2022-08-19T21:30:06.592Z,12.60
2022-08-19T21:32:34.011Z,12.52
2022-08-19T21:35:02.396Z,13.27
2022-08-19T21:37:29.702Z,14.85
2022-08-19T21:39:57.191Z,15.32
2022-08-19T21:42:24.424Z,11.40
2022-08-19T21:44:52.206Z,10.95
2022-08-19T21:47:19.603Z,13.35
2022-08-19T21:49:46.789Z,15.80
2022-08-19T21:52:14.065Z,12.18
2022-08-19T21:54:42.219Z,10.85
2022-08-19T21:57:10.587Z,11.70
2022-08-19T21:59:44.221Z,17.58
2022-08-19T22:02:21.653Z,13.07
2022-08-19T22:04:50.927Z,11.70
2022-08-19T22:07:20.391Z,14.98
2022-08-19T22:09:49.042Z,12.93
2022-08-19T22:12:23.448Z,17.70
2022-08-19T22:14:52.609Z,11.98
2022-08-19T22:17:20.308Z,14.55
2022-08-19T22:19:47.504Z,14.68
2022-08-19T22:22:39.079Z,13.93
2022-08-19T22:27:36.768Z,13.27
2022-08-19T22:30:07.160Z,17.60
2022-08-19T22:32:38.152Z,11.93
2022-08-19T22:35:08.674Z,10.93
2022-08-19T22:37:35.921Z,12.77
2022-08-19T22:40:05.658Z,12.60
2022-08-19T22:42:33.027Z,18.13
2022-08-19T22:45:01.113Z,10.05
2022-08-19T22:47:29.470Z,11.32
2022-08-19T22:49:59.529Z,12.13
2022-08-19T22:52:26.756Z,12.85
2022-08-19T22:54:59.048Z,13.00
2022-08-19T22:57:27.387Z,11.20
2022-08-19T22:59:56.188Z,11.20
2022-08-19T23:02:34.585Z,12.52
2022-08-19T23:05:02.686Z,11.07
2022-08-19T23:07:30.244Z,18.02
2022-08-19T23:09:57.562Z,11.98
2022-08-19T23:12:31.211Z,12.98
2022-08-19T23:15:19.954Z,12.45
2022-08-19T23:17:47.182Z,11.77
2022-08-19T23:20:15.913Z,12.00
2022-08-19T23:22:46.664Z,9.10
2022-08-19T23:25:17.513Z,8.65
2022-08-19T23:30:32.413Z,12.93
2022-08-19T23:33:07.710Z,12.93
2022-08-19T23:35:38.482Z,11.23
2022-08-19T23:38:07.678Z,15.80
2022-08-19T23:40:36.705Z,9.07
2022-08-19T23:43:07.856Z,11.95
2022-08-19T23:45:38.916Z,9.48
2022-08-19T23:48:07.137Z,12.27
2022-08-19T23:50:35.415Z,10.60
2022-08-19T23:53:03.652Z,13.25
2022-08-19T23:55:35.412Z,10.15
2022-08-19T23:58:03.723Z,8.82
